createdAt,value
2018-05-04T00:00:17.049Z,71.07
2018-05-04T00:01:17.069Z,70.40
2018-05-04T00:02:17.095Z,70.21
2018-05-04T00:03:17.116Z,70.40
2018-05-04T00:04:17.139Z,70.59
2018-05-04T00:05:17.158Z,71.26
2018-05-04T00:06:17.183Z,72.02
2018-05-04T00:07:17.204Z,72.31
2018-05-04T00:08:17.229Z,72.85
2018-05-04T00:09:17.253Z,73.51
2018-05-04T00:10:17.272Z,74.37
2018-05-04T00:11:17.298Z,75.42
2018-05-04T00:12:17.323Z,75.60
2018-05-04T00:13:17.338Z,76.08
2018-05-04T00:14:17.363Z,75.99
2018-05-04T00:15:17.384Z,75.55
2018-05-04T00:16:17.416Z,75.45
2018-05-04T00:17:17.434Z,75.45
2018-05-04T00:18:17.459Z,74.75
2018-05-04T00:19:17.475Z,75.45
2018-05-04T00:20:17.525Z,74.75
2018-05-04T00:21:17.519Z,74.84
2018-05-04T00:22:17.545Z,75.04
2018-05-04T00:23:17.561Z,74.84
2018-05-04T00:24:17.582Z,75.13
2018-05-04T00:25:17.607Z,74.94
2018-05-04T00:26:17.628Z,75.32
2018-05-04T00:27:17.652Z,74.46
2018-05-04T00:28:17.672Z,74.18
2018-05-04T00:29:17.697Z,73.89
2018-05-04T00:30:17.717Z,74.08
2018-05-04T00:31:17.740Z,73.51
2018-05-04T00:32:17.763Z,73.41
2018-05-04T00:33:17.782Z,73.32
2018-05-04T00:34:17.806Z,72.75
2018-05-04T00:35:17.827Z,72.85
2018-05-04T00:36:17.854Z,73.22
2018-05-04T00:37:17.876Z,73.28
2018-05-04T00:38:17.893Z,73.41
2018-05-04T00:39:17.917Z,73.76
2018-05-04T00:40:17.941Z,74.43
2018-05-04T00:41:17.955Z,74.14
2018-05-04T00:42:17.981Z,74.43
2018-05-04T00:43:18.001Z,74.52
2018-05-04T00:44:18.031Z,74.24
2018-05-04T00:45:18.049Z,74.24
2018-05-04T00:46:18.067Z,74.04
2018-05-04T00:47:18.091Z,73.95
2018-05-04T00:48:18.112Z,74.33
2018-05-04T00:49:18.136Z,74.14
2018-05-04T00:50:18.157Z,73.95
2018-05-04T00:51:18.176Z,74.24
2018-05-04T00:52:18.197Z,74.33
2018-05-04T00:53:18.220Z,74.43
2018-05-04T00:54:18.245Z,74.71
2018-05-04T00:55:18.265Z,74.90
2018-05-04T00:56:18.286Z,75.38
2018-05-04T00:57:18.306Z,75.38
2018-05-04T00:58:18.333Z,75.28
2018-05-04T00:59:18.353Z,75.38
2018-05-04T01:00:18.371Z,75.09
2018-05-04T01:01:18.395Z,74.80
2018-05-04T01:02:18.418Z,74.43
2018-05-04T01:03:18.434Z,74.24
2018-05-04T01:04:18.462Z,74.37
2018-05-04T01:05:18.485Z,73.61
2018-05-04T01:06:18.526Z,73.80
2018-05-04T01:07:18.526Z,73.41
2018-05-04T01:08:18.548Z,73.03
2018-05-04T01:09:18.565Z,73.32
2018-05-04T01:10:18.591Z,73.61
2018-05-04T01:11:18.617Z,73.41
2018-05-04T01:12:18.628Z,73.61
2018-05-04T01:13:18.656Z,74.08
2018-05-04T01:14:18.675Z,74.27
2018-05-04T01:15:18.695Z,74.37
2018-05-04T01:16:18.721Z,74.90
2018-05-04T01:17:18.745Z,75.09
2018-05-04T01:18:18.764Z,75.67
2018-05-04T01:19:18.780Z,75.85
2018-05-04T01:20:18.807Z,76.04
2018-05-04T01:21:18.829Z,76.71
2018-05-04T01:22:18.846Z,77.00
2018-05-04T01:23:18.883Z,77.66
2018-05-04T01:24:18.890Z,77.85
2018-05-04T01:25:18.914Z,77.56
2018-05-04T01:26:18.935Z,77.19
2018-05-04T01:27:18.958Z,77.09
2018-05-04T01:28:18.978Z,76.90
2018-05-04T01:29:19.003Z,77.00
2018-05-04T01:30:19.022Z,76.65
2018-05-04T01:31:19.039Z,76.90
2018-05-04T01:32:19.059Z,76.14
2018-05-04T01:33:19.090Z,75.95
2018-05-04T01:34:19.104Z,75.51
2018-05-04T01:35:19.127Z,75.51
2018-05-04T01:36:19.152Z,75.67
2018-05-04T01:37:19.168Z,75.42
2018-05-04T01:38:19.193Z,76.08
2018-05-04T01:39:19.214Z,75.42
2018-05-04T01:40:19.233Z,75.32
2018-05-04T01:41:19.257Z,75.42
2018-05-04T01:42:19.275Z,75.85
2018-05-04T01:43:19.298Z,76.04
2018-05-04T01:44:19.320Z,76.61
2018-05-04T01:45:19.338Z,77.37
2018-05-04T01:46:19.368Z,77.85
2018-05-04T01:47:19.385Z,77.66
2018-05-04T01:48:19.417Z,78.23
2018-05-04T01:49:19.426Z,78.61
2018-05-04T01:50:19.453Z,78.19
2018-05-04T01:51:19.471Z,79.24
2018-05-04T01:52:19.523Z,79.33
2018-05-04T01:53:19.512Z,79.14
2018-05-04T01:54:19.536Z,79.05
2018-05-04T01:55:19.554Z,79.24
2018-05-04T01:56:19.573Z,78.90
2018-05-04T01:57:19.603Z,78.52
2018-05-04T01:58:19.618Z,78.80
2018-05-04T01:59:19.647Z,78.57
2018-05-04T02:00:19.663Z,78.57
2018-05-04T02:01:19.683Z,78.57
2018-05-04T02:02:19.706Z,78.96
2018-05-04T02:03:19.731Z,79.05
2018-05-04T02:04:19.751Z,79.52
2018-05-04T02:05:19.770Z,79.72
2018-05-04T02:06:19.796Z,79.81
2018-05-04T02:07:19.806Z,79.52
2018-05-04T02:08:19.832Z,78.96
2018-05-04T02:09:19.854Z,78.33
2018-05-04T02:10:19.877Z,78.33
2018-05-04T02:11:19.901Z,78.33
2018-05-04T02:12:19.918Z,78.33
2018-05-04T02:13:19.942Z,78.52
2018-05-04T02:14:19.959Z,78.42
2018-05-04T02:15:19.983Z,78.71
2018-05-04T02:16:20.002Z,79.09
2018-05-04T02:17:20.026Z,78.86
2018-05-04T02:18:20.047Z,79.14
2018-05-04T02:19:20.068Z,79.43
2018-05-04T02:20:20.092Z,79.72
2018-05-04T02:21:20.117Z,79.52
2018-05-04T02:22:20.134Z,80.66
2018-05-04T02:23:20.151Z,81.14
2018-05-04T02:24:20.172Z,81.05
2018-05-04T02:25:20.270Z,81.43
2018-05-04T02:26:20.217Z,81.33
2018-05-04T02:27:20.236Z,81.52
2018-05-04T02:28:20.261Z,81.33
2018-05-04T02:29:20.285Z,81.24
2018-05-04T02:30:20.301Z,80.95
2018-05-04T02:31:20.322Z,81.33
2018-05-04T02:32:20.345Z,80.86
2018-05-04T02:33:20.362Z,80.47
2018-05-04T02:34:20.386Z,80.38
2018-05-04T02:35:20.410Z,80.19
2018-05-04T02:36:20.429Z,79.91
2018-05-04T02:37:20.451Z,80.10
2018-05-04T02:38:20.480Z,79.81
2018-05-04T02:39:20.491Z,79.91
2018-05-04T02:40:20.513Z,79.72
2018-05-04T02:41:20.530Z,79.75
2018-05-04T02:42:20.555Z,80.04
2018-05-04T02:43:20.580Z,79.28
2018-05-04T02:44:20.600Z,79.19
2018-05-04T02:45:20.616Z,79.19
2018-05-04T02:46:20.650Z,79.28
2018-05-04T02:47:20.665Z,78.96
2018-05-04T02:48:20.687Z,79.62
2018-05-04T02:49:20.713Z,79.72
2018-05-04T02:50:20.727Z,80.10
2018-05-04T02:51:20.745Z,80.29
2018-05-04T02:52:20.768Z,80.00
2018-05-04T02:53:20.788Z,80.86
2018-05-04T02:54:20.817Z,79.62
2018-05-04T02:55:20.892Z,79.81
2018-05-04T02:56:20.850Z,79.33
2018-05-04T02:57:20.870Z,79.72
2018-05-04T02:58:20.895Z,80.00
2018-05-04T02:59:20.919Z,80.29
2018-05-04T03:00:20.946Z,80.19
2018-05-04T03:01:20.955Z,79.81
2018-05-04T03:02:20.979Z,79.81
2018-05-04T03:03:20.999Z,81.14
2018-05-04T03:04:21.020Z,81.14
2018-05-04T03:05:21.039Z,80.86
2018-05-04T03:06:21.063Z,80.95
2018-05-04T03:07:21.079Z,80.86
2018-05-04T03:08:21.108Z,80.47
2018-05-04T03:09:21.126Z,80.66
2018-05-04T03:10:21.144Z,80.10
2018-05-04T03:11:21.173Z,80.66
2018-05-04T03:12:21.184Z,80.38
2018-05-04T03:13:21.205Z,80.38
2018-05-04T03:14:21.229Z,80.47
2018-05-04T03:15:21.254Z,81.14
2018-05-04T03:16:21.270Z,80.86
2018-05-04T03:17:21.290Z,80.86
2018-05-04T03:18:21.313Z,81.05
2018-05-04T03:19:21.329Z,81.05
2018-05-04T03:20:21.355Z,81.05
2018-05-04T03:21:21.377Z,81.14
2018-05-04T03:22:21.394Z,81.14
2018-05-04T03:23:21.414Z,80.57
2018-05-04T03:24:21.436Z,80.86
2018-05-04T03:25:21.464Z,81.05
2018-05-04T03:26:21.480Z,80.95
2018-05-04T03:27:21.497Z,80.86
2018-05-04T03:28:21.528Z,80.95
2018-05-04T03:29:21.544Z,81.33
2018-05-04T03:30:21.564Z,80.29
2018-05-04T03:31:21.593Z,81.14
2018-05-04T03:32:21.603Z,81.14
2018-05-04T03:33:21.621Z,81.14
2018-05-04T03:34:21.655Z,81.14
2018-05-04T03:35:21.676Z,81.05
2018-05-04T03:36:21.683Z,80.86
2018-05-04T03:37:21.706Z,81.05
2018-05-04T03:38:21.734Z,81.24
2018-05-04T03:39:21.745Z,80.95
2018-05-04T03:40:21.768Z,81.05
2018-05-04T03:41:21.787Z,81.62
2018-05-04T03:42:21.812Z,81.05
2018-05-04T03:43:21.828Z,81.52
2018-05-04T03:44:21.847Z,81.24
2018-05-04T03:45:21.873Z,81.71
2018-05-04T03:46:21.895Z,81.33
2018-05-04T03:47:21.912Z,81.05
2018-05-04T03:48:21.932Z,81.52
2018-05-04T03:49:21.953Z,81.52
2018-05-04T03:50:21.977Z,81.52
2018-05-04T03:51:21.995Z,81.62
2018-05-04T03:52:22.019Z,81.62
2018-05-04T03:53:22.040Z,81.33
2018-05-04T03:54:22.060Z,81.71
2018-05-04T03:55:22.076Z,81.62
2018-05-04T03:56:22.097Z,81.24
2018-05-04T03:57:22.125Z,80.95
2018-05-04T03:58:22.149Z,81.05
2018-05-04T03:59:22.158Z,80.86
2018-05-04T04:00:22.181Z,81.05
2018-05-04T04:01:22.205Z,81.24
2018-05-04T04:02:22.243Z,81.43
2018-05-04T04:03:22.241Z,81.24
2018-05-04T04:04:22.267Z,80.86
2018-05-04T04:05:22.281Z,80.47
2018-05-04T04:06:22.306Z,80.47
2018-05-04T04:07:22.330Z,80.29
2018-05-04T04:08:22.351Z,80.00
2018-05-04T04:09:22.367Z,79.62
2018-05-04T04:10:22.390Z,79.91
2018-05-04T04:11:22.406Z,80.57
2018-05-04T04:12:22.432Z,80.19
2018-05-04T04:13:22.451Z,79.81
2018-05-04T04:14:22.470Z,80.66
2018-05-04T04:15:22.491Z,80.57
2018-05-04T04:16:22.517Z,80.29
2018-05-04T04:17:22.536Z,80.57
2018-05-04T04:18:22.555Z,80.29
2018-05-04T04:19:22.577Z,80.10
2018-05-04T04:20:22.597Z,80.00
2018-05-04T04:21:22.620Z,79.72
2018-05-04T04:22:22.636Z,80.47
2018-05-04T04:23:22.660Z,80.38
2018-05-04T04:24:22.679Z,80.04
2018-05-04T04:25:22.700Z,79.62
2018-05-04T04:26:22.723Z,79.72
2018-05-04T04:27:22.743Z,80.10
2018-05-04T04:28:22.763Z,80.19
2018-05-04T04:29:22.784Z,80.38
2018-05-04T04:30:22.810Z,80.47
2018-05-04T04:31:22.832Z,79.72
2018-05-04T04:32:22.846Z,80.29
2018-05-04T04:33:22.863Z,80.57
2018-05-04T04:34:22.889Z,80.66
2018-05-04T04:35:22.906Z,80.19
2018-05-04T04:36:22.930Z,80.47
2018-05-04T04:37:22.946Z,80.10
2018-05-04T04:38:22.969Z,80.38
2018-05-04T04:39:22.987Z,81.14
2018-05-04T04:40:23.010Z,81.24
2018-05-04T04:41:23.031Z,80.42
2018-05-04T04:42:23.051Z,80.71
2018-05-04T04:43:23.069Z,79.91
2018-05-04T04:44:23.099Z,79.81
2018-05-04T04:45:23.119Z,79.94
2018-05-04T04:46:23.136Z,79.94
2018-05-04T04:47:23.158Z,80.13
2018-05-04T04:48:23.179Z,79.19
2018-05-04T04:49:23.200Z,79.75
2018-05-04T04:50:23.218Z,79.28
2018-05-04T04:51:23.244Z,79.19
2018-05-04T04:52:23.259Z,78.80
2018-05-04T04:53:23.318Z,78.42
2018-05-04T04:54:23.300Z,78.14
2018-05-04T04:55:23.329Z,77.66
2018-05-04T04:56:23.345Z,77.95
2018-05-04T04:57:23.369Z,77.76
2018-05-04T04:58:23.387Z,77.37
2018-05-04T04:59:23.408Z,77.37
2018-05-04T05:00:23.427Z,77.76
2018-05-04T05:01:23.448Z,78.23
2018-05-04T05:02:23.468Z,77.95
2018-05-04T05:03:23.494Z,77.95
2018-05-04T05:04:23.518Z,77.56
2018-05-04T05:05:23.532Z,77.47
2018-05-04T05:06:23.554Z,77.28
2018-05-04T05:07:23.570Z,77.66
2018-05-04T05:08:23.595Z,77.56
2018-05-04T05:09:23.613Z,77.66
2018-05-04T05:10:23.633Z,77.85
2018-05-04T05:11:23.653Z,78.04
2018-05-04T05:12:23.673Z,77.76
2018-05-04T05:13:23.700Z,78.23
2018-05-04T05:14:23.717Z,77.95
2018-05-04T05:15:23.742Z,77.95
2018-05-04T05:16:23.783Z,77.37
2018-05-04T05:17:23.778Z,77.76
2018-05-04T05:18:23.808Z,77.76
2018-05-04T05:19:23.830Z,77.76
2018-05-04T05:20:23.854Z,77.76
2018-05-04T05:21:23.872Z,77.66
2018-05-04T05:22:23.885Z,77.56
2018-05-04T05:23:23.907Z,77.28
2018-05-04T05:24:23.927Z,76.84
2018-05-04T05:25:23.948Z,77.00
2018-05-04T05:26:23.968Z,77.22
2018-05-04T05:27:23.986Z,76.81
2018-05-04T05:28:24.013Z,76.71
2018-05-04T05:29:24.055Z,76.71
2018-05-04T05:30:24.052Z,76.61
2018-05-04T05:31:24.077Z,76.71
2018-05-04T05:32:24.104Z,76.90
2018-05-04T05:33:24.172Z,77.13
2018-05-04T05:34:24.141Z,77.51
2018-05-04T05:35:24.170Z,76.37
2018-05-04T05:36:24.182Z,75.51
2018-05-04T05:37:24.205Z,75.32
2018-05-04T05:38:24.229Z,75.23
2018-05-04T05:39:24.252Z,75.42
2018-05-04T05:40:24.264Z,75.32
2018-05-04T05:41:24.290Z,74.37
2018-05-04T05:42:24.378Z,74.37
2018-05-04T05:43:24.336Z,74.75
2018-05-04T05:44:24.354Z,74.46
2018-05-04T05:45:24.373Z,74.08
2018-05-04T05:46:24.401Z,73.80
2018-05-04T05:47:24.416Z,73.51
2018-05-04T05:48:24.440Z,73.32
2018-05-04T05:49:24.457Z,72.46
2018-05-04T05:50:24.481Z,72.75
2018-05-04T05:51:24.503Z,72.94
2018-05-04T05:52:24.540Z,73.32
2018-05-04T05:53:24.550Z,72.85
2018-05-04T05:54:24.569Z,72.94
2018-05-04T05:55:24.585Z,72.65
2018-05-04T05:56:24.607Z,73.17
2018-05-04T05:57:24.634Z,72.21
2018-05-04T05:58:24.653Z,71.07
2018-05-04T05:59:24.677Z,71.26
2018-05-04T06:00:24.693Z,71.36
2018-05-04T06:01:24.718Z,70.97
2018-05-04T06:02:24.742Z,71.17
2018-05-04T06:03:24.756Z,71.07
2018-05-04T06:04:24.785Z,70.50
2018-05-04T06:05:24.801Z,70.97
2018-05-04T06:06:24.827Z,71.17
2018-05-04T06:07:24.840Z,70.40
2018-05-04T06:08:24.870Z,70.40
2018-05-04T06:09:24.896Z,70.31
2018-05-04T06:10:24.914Z,70.21
2018-05-04T06:11:24.932Z,69.74
2018-05-04T06:12:24.952Z,70.02
2018-05-04T06:13:24.970Z,69.64
2018-05-04T06:14:24.995Z,69.26
2018-05-04T06:15:25.016Z,69.35
2018-05-04T06:16:25.040Z,69.45
2018-05-04T06:17:25.064Z,69.64
2018-05-04T06:18:25.085Z,69.68
2018-05-04T06:19:25.101Z,70.21
2018-05-04T06:20:25.124Z,70.40
2018-05-04T06:21:25.144Z,70.15
2018-05-04T06:22:25.174Z,70.78
2018-05-04T06:23:25.192Z,70.59
2018-05-04T06:24:25.227Z,69.68
2018-05-04T06:25:25.234Z,69.77
2018-05-04T06:26:25.254Z,68.88
2018-05-04T06:27:25.282Z,68.82
2018-05-04T06:28:25.300Z,69.01
2018-05-04T06:29:25.320Z,68.82
2018-05-04T06:30:25.344Z,68.24
2018-05-04T06:31:25.364Z,68.44
2018-05-04T06:32:25.390Z,69.10
2018-05-04T06:33:25.414Z,68.53
2018-05-04T06:34:25.431Z,68.72
2018-05-04T06:35:25.457Z,68.15
2018-05-04T06:36:25.477Z,68.15
2018-05-04T06:37:25.496Z,68.63
2018-05-04T06:38:25.518Z,68.82
2018-05-04T06:39:25.540Z,68.44
2018-05-04T06:40:25.567Z,67.86
2018-05-04T06:41:25.588Z,67.48
2018-05-04T06:42:25.608Z,66.34
2018-05-04T06:43:25.627Z,66.44
2018-05-04T06:44:25.658Z,65.86
2018-05-04T06:45:25.677Z,66.24
2018-05-04T06:46:25.699Z,66.24
2018-05-04T06:47:25.719Z,66.09
2018-05-04T06:48:25.740Z,66.05
2018-05-04T06:49:25.762Z,64.62
2018-05-04T06:50:25.783Z,65.00
2018-05-04T06:51:25.804Z,64.53
2018-05-04T06:52:25.832Z,64.43
2018-05-04T06:53:25.847Z,64.81
2018-05-04T06:54:25.881Z,64.09
2018-05-04T06:55:25.899Z,64.56
2018-05-04T06:56:25.919Z,64.75
2018-05-04T06:57:25.937Z,64.53
2018-05-04T06:58:25.967Z,64.91
2018-05-04T06:59:26.078Z,64.72
2018-05-04T07:00:26.003Z,63.99
2018-05-04T07:01:26.028Z,64.65
2018-05-04T07:02:26.053Z,64.28
2018-05-04T07:03:26.072Z,64.18
2018-05-04T07:04:26.097Z,63.89
2018-05-04T07:05:26.118Z,63.70
2018-05-04T07:06:26.135Z,63.42
2018-05-04T07:07:26.161Z,62.65
2018-05-04T07:08:26.185Z,62.94
2018-05-04T07:09:26.209Z,61.60
2018-05-04T07:10:26.236Z,61.22
2018-05-04T07:11:26.248Z,60.94
2018-05-04T07:12:26.279Z,61.04
2018-05-04T07:13:26.352Z,61.22
2018-05-04T07:14:26.321Z,61.04
2018-05-04T07:15:26.336Z,61.04
2018-05-04T07:16:26.363Z,60.94
2018-05-04T07:17:26.386Z,59.60
2018-05-04T07:18:26.411Z,59.60
2018-05-04T07:19:26.434Z,59.89
2018-05-04T07:20:26.451Z,60.27
2018-05-04T07:21:26.473Z,60.30
2018-05-04T07:22:26.496Z,58.68
2018-05-04T07:23:26.521Z,58.01
2018-05-04T07:24:26.540Z,56.96
2018-05-04T07:25:26.571Z,57.53
2018-05-04T07:26:26.594Z,58.68
2018-05-04T07:27:26.609Z,59.06
2018-05-04T07:28:26.632Z,59.06
2018-05-04T07:29:26.650Z,59.82
2018-05-04T07:30:26.678Z,60.68
2018-05-04T07:31:26.698Z,60.02
2018-05-04T07:32:26.817Z,60.78
2018-05-04T07:33:26.740Z,60.49
2018-05-04T07:34:26.769Z,60.39
2018-05-04T07:35:26.792Z,59.44
2018-05-04T07:36:26.813Z,59.66
2018-05-04T07:37:26.837Z,59.85
2018-05-04T07:38:26.860Z,59.66
2018-05-04T07:39:26.883Z,58.61
2018-05-04T07:40:26.901Z,59.09
2018-05-04T07:41:26.930Z,59.09
2018-05-04T07:42:26.946Z,59.28
2018-05-04T07:43:26.984Z,57.18
2018-05-04T07:44:27.006Z,56.70
2018-05-04T07:45:27.021Z,56.80
2018-05-04T07:46:27.046Z,57.09
2018-05-04T07:47:27.066Z,56.80
2018-05-04T07:48:27.093Z,57.11
2018-05-04T07:49:27.121Z,56.45
2018-05-04T07:50:27.136Z,55.49
2018-05-04T07:51:27.160Z,55.87
2018-05-04T07:52:27.180Z,56.35
2018-05-04T07:53:27.204Z,57.40
2018-05-04T07:54:27.231Z,56.06
2018-05-04T07:55:27.249Z,56.06
2018-05-04T07:56:27.277Z,55.49
2018-05-04T07:57:27.299Z,55.61
2018-05-04T07:58:27.322Z,55.71
2018-05-04T07:59:27.338Z,54.27
2018-05-04T08:00:27.370Z,54.37
2018-05-04T08:01:27.394Z,53.99
2018-05-04T08:02:27.417Z,54.47
2018-05-04T08:03:27.441Z,53.89
2018-05-04T08:04:27.463Z,54.37
2018-05-04T08:05:27.491Z,54.39
2018-05-04T08:06:27.510Z,54.85
2018-05-04T08:07:27.535Z,54.97
2018-05-04T08:08:27.617Z,53.63
2018-05-04T08:09:27.580Z,53.44
2018-05-04T08:10:27.604Z,52.96
2018-05-04T08:11:27.629Z,53.92
2018-05-04T08:12:27.654Z,53.53
2018-05-04T08:13:27.679Z,53.37
2018-05-04T08:14:27.709Z,53.47
2018-05-04T08:15:27.725Z,53.85
2018-05-04T08:16:27.749Z,53.28
2018-05-04T08:17:27.775Z,52.70
2018-05-04T08:18:27.800Z,52.15
2018-05-04T08:19:27.824Z,52.32
2018-05-04T08:20:27.854Z,52.32
2018-05-04T08:21:27.876Z,52.99
2018-05-04T08:22:27.899Z,53.08
2018-05-04T08:23:27.921Z,52.13
2018-05-04T08:24:27.947Z,51.56
2018-05-04T08:25:27.971Z,53.56
2018-05-04T08:26:27.999Z,54.14
2018-05-04T08:27:28.046Z,53.75
2018-05-04T08:28:28.052Z,53.66
2018-05-04T08:29:28.074Z,53.37
2018-05-04T08:30:28.100Z,53.47
2018-05-04T08:31:28.126Z,53.47
2018-05-04T08:32:28.152Z,52.61
2018-05-04T08:33:28.167Z,52.80
2018-05-04T08:34:28.199Z,51.93
2018-05-04T08:35:28.269Z,51.07
2018-05-04T08:36:28.249Z,51.75
2018-05-04T08:37:28.277Z,52.32
2018-05-04T08:38:28.299Z,53.66
2018-05-04T08:39:28.323Z,52.80
2018-05-04T08:40:28.347Z,53.47
2018-05-04T08:41:28.372Z,51.84
2018-05-04T08:42:28.399Z,52.22
2018-05-04T08:43:28.427Z,52.80
2018-05-04T08:44:28.447Z,52.32
2018-05-04T08:45:28.476Z,52.42
2018-05-04T08:46:28.504Z,51.75
2018-05-04T08:47:28.526Z,52.51
2018-05-04T08:48:28.547Z,51.75
2018-05-04T08:49:28.575Z,52.61
2018-05-04T08:50:28.594Z,52.99
2018-05-04T08:51:28.623Z,53.94
2018-05-04T08:52:28.649Z,54.11
2018-05-04T08:53:28.671Z,54.30
2018-05-04T08:54:28.818Z,53.82
2018-05-04T08:55:28.728Z,54.02
2018-05-04T08:56:28.749Z,54.49
2018-05-04T08:57:28.812Z,54.39
2018-05-04T08:58:28.801Z,54.39
2018-05-04T08:59:28.821Z,55.45
2018-05-04T09:00:28.851Z,56.21
2018-05-04T09:01:28.879Z,55.64
2018-05-04T09:02:28.895Z,54.88
2018-05-04T09:03:28.919Z,54.78
2018-05-04T09:04:28.958Z,54.21
2018-05-04T09:05:29.181Z,53.92
2018-05-04T09:06:28.995Z,55.16
2018-05-04T09:07:29.027Z,56.31
2018-05-04T09:08:29.046Z,57.65
2018-05-04T09:09:29.066Z,56.69
2018-05-04T09:10:29.091Z,55.74
2018-05-04T09:11:29.116Z,55.64
2018-05-04T09:12:29.143Z,56.12
2018-05-04T09:13:29.165Z,57.07
2018-05-04T09:14:29.192Z,57.84
2018-05-04T09:15:29.210Z,57.17
2018-05-04T09:16:29.245Z,56.98
2018-05-04T09:17:29.265Z,56.50
2018-05-04T09:18:29.292Z,56.60
2018-05-04T09:19:29.313Z,56.69
2018-05-04T09:20:29.339Z,56.98
2018-05-04T09:21:29.360Z,56.88
2018-05-04T09:22:29.386Z,56.02
2018-05-04T09:23:29.419Z,54.85
2018-05-04T09:24:29.439Z,53.80
2018-05-04T09:25:29.461Z,55.04
2018-05-04T09:26:29.491Z,55.23
2018-05-04T09:27:29.510Z,55.04
2018-05-04T09:28:29.537Z,53.03
2018-05-04T09:29:29.557Z,51.89
2018-05-04T09:30:29.589Z,52.36
2018-05-04T09:31:29.605Z,52.08
2018-05-04T09:32:29.635Z,51.98
2018-05-04T09:33:29.653Z,51.79
2018-05-04T09:34:29.682Z,51.41
2018-05-04T09:35:29.701Z,51.70
2018-05-04T09:36:29.731Z,51.70
2018-05-04T09:37:29.752Z,51.41
2018-05-04T09:38:29.775Z,51.12
2018-05-04T09:39:29.798Z,52.17
2018-05-04T09:40:29.824Z,51.21
2018-05-04T09:41:29.849Z,50.67
2018-05-04T09:42:29.870Z,48.57
2018-05-04T09:43:29.918Z,46.17
2018-05-04T09:44:29.923Z,45.22
2018-05-04T09:45:29.946Z,44.26
2018-05-04T09:46:29.973Z,44.55
2018-05-04T09:47:30.036Z,44.84
2018-05-04T09:48:30.023Z,44.84
2018-05-04T09:49:30.045Z,45.03
2018-05-04T09:50:30.068Z,44.93
2018-05-04T09:51:30.092Z,45.41
2018-05-04T09:52:30.114Z,46.27
2018-05-04T09:53:30.139Z,45.31
2018-05-04T09:54:30.164Z,45.60
2018-05-04T09:55:30.185Z,46.27
2018-05-04T09:56:30.213Z,48.28
2018-05-04T09:57:30.234Z,46.66
2018-05-04T09:58:30.260Z,46.27
2018-05-04T09:59:30.288Z,47.99
2018-05-04T10:00:30.311Z,48.38
2018-05-04T10:01:30.334Z,48.95
2018-05-04T10:02:30.366Z,48.38
2018-05-04T10:03:30.404Z,47.63
2018-05-04T10:04:30.409Z,49.16
2018-05-04T10:05:30.435Z,50.31
2018-05-04T10:06:30.464Z,47.82
2018-05-04T10:07:30.481Z,45.34
2018-05-04T10:08:30.503Z,44.29
2018-05-04T10:09:30.538Z,43.90
2018-05-04T10:10:30.556Z,44.00
2018-05-04T10:11:30.578Z,45.15
2018-05-04T10:12:30.600Z,43.52
2018-05-04T10:13:30.629Z,43.23
2018-05-04T10:14:30.651Z,42.76
2018-05-04T10:15:30.672Z,43.43
2018-05-04T10:16:30.699Z,44.09
2018-05-04T10:17:30.719Z,42.87
2018-05-04T10:18:30.744Z,42.66
2018-05-04T10:19:30.818Z,42.76
2018-05-04T10:20:30.795Z,42.56
2018-05-04T10:21:30.818Z,43.23
2018-05-04T10:22:30.844Z,44.21
2018-05-04T10:23:30.872Z,43.90
2018-05-04T10:24:30.892Z,44.29
2018-05-04T10:25:30.919Z,44.50
2018-05-04T10:26:30.941Z,44.79
2018-05-04T10:27:30.973Z,42.58
2018-05-04T10:28:30.992Z,42.01
2018-05-04T10:29:31.017Z,41.82
2018-05-04T10:30:31.042Z,42.30
2018-05-04T10:31:31.165Z,42.68
2018-05-04T10:32:31.092Z,42.30
2018-05-04T10:33:31.114Z,42.01
2018-05-04T10:34:31.144Z,42.77
2018-05-04T10:35:31.178Z,43.16
2018-05-04T10:36:31.182Z,43.63
2018-05-04T10:37:31.208Z,42.77
2018-05-04T10:38:31.346Z,42.13
2018-05-04T10:39:31.264Z,41.46
2018-05-04T10:40:31.281Z,41.36
2018-05-04T10:41:31.308Z,40.50
2018-05-04T10:42:31.337Z,40.50
2018-05-04T10:43:31.355Z,40.78
2018-05-04T10:44:31.382Z,40.88
2018-05-04T10:45:31.406Z,42.32
2018-05-04T10:46:31.434Z,42.05
2018-05-04T10:47:31.451Z,41.09
2018-05-04T10:48:31.478Z,41.02
2018-05-04T10:49:31.503Z,40.61
2018-05-04T10:50:31.527Z,41.31
2018-05-04T10:51:31.552Z,39.29
2018-05-04T10:52:31.577Z,38.91
2018-05-04T10:53:31.603Z,37.20
2018-05-04T10:54:31.631Z,36.63
2018-05-04T10:55:31.662Z,36.24
2018-05-04T10:56:31.681Z,35.97
2018-05-04T10:57:31.709Z,36.74
2018-05-04T10:58:31.731Z,36.47
2018-05-04T10:59:31.765Z,35.80
2018-05-04T11:00:31.789Z,35.14
2018-05-04T11:01:31.813Z,34.09
2018-05-04T11:02:31.849Z,33.24
2018-05-04T11:03:31.877Z,32.51
2018-05-04T11:04:31.897Z,31.38
2018-05-04T11:05:31.925Z,29.10
2018-05-04T11:06:31.983Z,28.37
2018-05-04T11:07:31.985Z,25.71
2018-05-04T11:08:32.008Z,23.90
2018-05-04T11:09:32.041Z,23.24
2018-05-04T11:10:32.072Z,20.85
2018-05-04T11:11:32.097Z,19.51
2018-05-04T11:12:32.132Z,19.34
2018-05-04T11:13:32.161Z,18.07
2018-05-04T11:14:32.189Z,16.43
2018-05-04T11:15:32.221Z,16.43
2018-05-04T11:16:32.257Z,17.60
2018-05-04T11:17:32.287Z,17.31
2018-05-04T11:18:32.317Z,16.74
2018-05-04T11:19:32.448Z,16.08
2018-05-04T11:20:32.383Z,15.41
2018-05-04T11:21:32.420Z,13.75
2018-05-04T11:22:32.451Z,14.33
2018-05-04T11:23:32.482Z,15.50
2018-05-04T11:24:32.516Z,15.11
2018-05-04T11:25:32.547Z,14.04
2018-05-04T11:26:32.590Z,14.92
2018-05-04T11:27:32.619Z,14.52
2018-05-04T11:28:32.644Z,14.42
2018-05-04T11:29:32.690Z,14.91
2018-05-04T11:30:32.719Z,15.58
2018-05-04T11:31:32.750Z,15.50
2018-05-04T11:32:32.781Z,15.96
2018-05-04T11:33:32.824Z,14.51
2018-05-04T11:34:32.859Z,14.71
2018-05-04T11:35:32.885Z,15.30
2018-05-04T11:36:32.929Z,13.56
2018-05-04T11:37:32.967Z,12.49
2018-05-04T11:38:32.992Z,12.40
2018-05-04T11:39:33.033Z,12.30
2018-05-04T11:40:33.060Z,12.21
2018-05-04T11:41:33.102Z,12.22
2018-05-04T11:42:33.135Z,11.93
2018-05-04T11:43:33.169Z,11.94
2018-05-04T11:44:33.204Z,11.46
2018-05-04T11:45:33.239Z,11.36
2018-05-04T11:46:33.278Z,11.26
2018-05-04T11:47:33.316Z,11.26
2018-05-04T11:48:33.347Z,11.95
2018-05-04T11:49:33.434Z,11.46
2018-05-04T11:50:33.418Z,11.17
2018-05-04T11:51:33.458Z,10.88
2018-05-04T11:52:33.502Z,9.80
2018-05-04T11:53:33.535Z,9.58
2018-05-04T11:54:33.574Z,10.75
2018-05-04T11:55:33.606Z,11.16
2018-05-04T11:56:33.643Z,11.35
2018-05-04T11:57:33.678Z,10.38
2018-05-04T11:58:33.723Z,10.19
2018-05-04T11:59:33.754Z,10.59
2018-05-04T12:00:33.790Z,9.42
2018-05-04T12:01:33.836Z,9.03
2018-05-04T12:02:33.874Z,10.78
2018-05-04T12:03:33.903Z,10.48
2018-05-04T12:04:33.948Z,9.89
2018-05-04T12:05:33.982Z,9.58
2018-05-04T12:06:34.021Z,9.97
2018-05-04T12:07:34.056Z,10.66
2018-05-04T12:08:34.095Z,11.34
2018-05-04T12:09:34.135Z,11.15
2018-05-04T12:10:34.173Z,9.98
2018-05-04T12:11:34.208Z,11.45
2018-05-04T12:12:34.247Z,11.36
2018-05-04T12:13:34.293Z,11.16
2018-05-04T12:14:34.326Z,11.46
2018-05-04T12:15:34.369Z,11.18
2018-05-04T12:16:34.454Z,11.18
2018-05-04T12:17:34.438Z,9.82
2018-05-04T12:18:34.490Z,8.75
2018-05-04T12:19:34.521Z,8.16
2018-05-04T12:20:34.556Z,8.36
2018-05-04T12:21:34.591Z,7.57
2018-05-04T12:22:34.632Z,8.25
2018-05-04T12:23:34.668Z,8.64
2018-05-04T12:24:34.708Z,7.67
2018-05-04T12:25:34.747Z,6.49
2018-05-04T12:26:34.792Z,6.10
2018-05-04T12:27:34.826Z,6.59
2018-05-04T12:28:34.869Z,7.09
2018-05-04T12:29:34.902Z,7.28
2018-05-04T12:30:34.956Z,7.67
2018-05-04T12:31:34.985Z,6.79
2018-05-04T12:32:35.022Z,7.87
2018-05-04T12:33:35.062Z,7.66
2018-05-04T12:34:35.110Z,7.57
2018-05-04T12:35:35.143Z,9.14
2018-05-04T12:36:35.179Z,7.67
2018-05-04T12:37:35.227Z,7.87
2018-05-04T12:38:35.280Z,7.87
2018-05-04T12:39:35.304Z,7.07
2018-05-04T12:40:35.343Z,7.76
2018-05-04T12:41:35.380Z,8.26
2018-05-04T12:42:35.425Z,9.02
2018-05-04T12:43:35.456Z,9.81
2018-05-04T12:44:35.501Z,10.00
2018-05-04T12:45:35.552Z,8.93
2018-05-04T12:46:35.584Z,8.25
2018-05-04T12:47:35.626Z,8.64
2018-05-04T12:48:35.657Z,8.45
2018-05-04T12:49:35.699Z,7.86
2018-05-04T12:50:35.745Z,7.66
2018-05-04T12:51:35.786Z,7.67
2018-05-04T12:52:35.820Z,7.77
2018-05-04T12:53:35.948Z,9.14
2018-05-04T12:54:35.896Z,7.46